TimeMST,TemperatureF,Dew PointF,Humidity,Sea Level PressureIn,VisibilityMPH,Wind Direction,Wind SpeedMPH,Gust SpeedMPH,PrecipitationIn,Events,Conditions,WindDirDegrees,DateUTC
12:15 AM,80.6,35.6,20,29.91,10.0,ESE,6.9,-,N/A,,Clear,110,2012-10-05 07:15:00
12:35 AM,80.6,35.6,20,29.92,10.0,East,8.1,-,N/A,,Clear,100,2012-10-05 07:35:00
12:55 AM,77.0,35.6,22,29.92,10.0,Calm,Calm,-,N/A,,Clear,0,2012-10-05 07:55:00
1:15 AM,78.8,33.8,20,29.92,10.0,SE,3.5,-,N/A,,Clear,130,2012-10-05 08:15:00
1:35 AM,77.0,32.0,19,29.92,10.0,SE,4.6,-,N/A,,Clear,130,2012-10-05 08:35:00
1:55 AM,77.0,32.0,19,29.92,10.0,Calm,Calm,-,N/A,,Clear,0,2012-10-05 08:55:00
2:15 AM,77.0,32.0,19,29.92,10.0,Calm,Calm,-,N/A,,Clear,0,2012-10-05 09:15:00
2:35 AM,77.0,32.0,19,29.91,10.0,Calm,Calm,-,N/A,,Clear,0,2012-10-05 09:35:00
2:55 AM,75.2,35.6,24,29.92,10.0,SW,3.5,-,N/A,,Clear,220,2012-10-05 09:55:00
3:15 AM,75.2,32.0,21,29.92,10.0,South,5.8,-,N/A,,Clear,190,2012-10-05 10:15:00
3:35 AM,73.4,32.0,22,29.92,10.0,Calm,Calm,-,N/A,,Clear,0,2012-10-05 10:35:00
3:55 AM,73.4,33.8,23,29.92,10.0,Calm,Calm,-,N/A,,Clear,0,2012-10-05 10:55:00
4:15 AM,71.6,35.6,27,29.92,10.0,Calm,Calm,-,N/A,,Clear,0,2012-10-05 11:15:00
4:35 AM,69.8,33.8,27,29.93,10.0,East,4.6,-,N/A,,Clear,90,2012-10-05 11:35:00
4:55 AM,71.6,32.0,23,29.93,10.0,North,3.5,-,N/A,,Clear,350,2012-10-05 11:55:00
5:15 AM,69.8,35.6,28,29.93,10.0,North,3.5,-,N/A,,Clear,350,2012-10-05 12:15:00
5:35 AM,68.0,35.6,30,29.93,10.0,Calm,Calm,-,N/A,,Clear,0,2012-10-05 12:35:00
5:55 AM,68.0,32.0,26,29.94,10.0,Calm,Calm,-,N/A,,Clear,0,2012-10-05 12:55:00
6:15 AM,69.8,32.0,25,29.94,10.0,Calm,Calm,-,N/A,,Clear,0,2012-10-05 13:15:00
6:35 AM,71.6,33.8,25,29.95,10.0,Calm,Calm,-,N/A,,Clear,0,2012-10-05 13:35:00
6:55 AM,68.0,32.0,26,29.95,10.0,Calm,Calm,-,N/A,,Clear,0,2012-10-05 13:55:00
7:35 AM,69.8,33.8,27,29.97,10.0,Calm,Calm,-,N/A,,Clear,0,2012-10-05 14:35:00
7:55 AM,71.6,35.6,27,29.97,10.0,South,3.5,-,N/A,,Clear,190,2012-10-05 14:55:00
8:15 AM,73.4,33.8,23,29.98,10.0,Calm,Calm,-,N/A,,Clear,0,2012-10-05 15:15:00
8:35 AM,73.4,35.6,25,29.98,10.0,Calm,Calm,-,N/A,,Clear,0,2012-10-05 15:35:00
8:55 AM,75.2,35.6,24,29.99,10.0,Calm,Calm,-,N/A,,Clear,0,2012-10-05 15:55:00
9:15 AM,77.0,35.6,22,29.99,10.0,Calm,Calm,-,N/A,,Clear,0,2012-10-05 16:15:00
9:35 AM,77.0,35.6,22,29.99,10.0,Calm,Calm,-,N/A,,Clear,0,2012-10-05 16:35:00
9:55 AM,78.8,35.6,21,29.99,10.0,SSW,4.6,-,N/A,,Clear,210,2012-10-05 16:55:00
10:15 AM,80.6,35.6,20,29.99,10.0,WSW,3.5,-,N/A,,Clear,240,2012-10-05 17:15:00
10:35 AM,82.4,35.6,19,29.98,10.0,SSW,4.6,-,N/A,,Clear,210,2012-10-05 17:35:00
10:55 AM,84.2,37.4,19,29.98,10.0,SSW,8.1,-,N/A,,Clear,210,2012-10-05 17:55:00
11:15 AM,84.2,37.4,19,29.97,10.0,WSW,6.9,-,N/A,,Clear,240,2012-10-05 18:15:00
11:35 AM,86.0,37.4,18,29.97,10.0,SW,5.8,-,N/A,,Clear,220,2012-10-05 18:35:00
11:55 AM,86.0,37.4,18,29.96,10.0,West,4.6,-,N/A,,Clear,270,2012-10-05 18:55:00
12:15 PM,87.8,37.4,17,29.95,10.0,SW,9.2,-,N/A,,Clear,220,2012-10-05 19:15:00
12:35 PM,89.6,37.4,16,29.94,10.0,SW,8.1,-,N/A,,Clear,220,2012-10-05 19:35:00
12:55 PM,89.6,37.4,16,29.93,10.0,SW,5.8,-,N/A,,Clear,230,2012-10-05 19:55:00
1:15 PM,91.4,35.6,14,29.92,10.0,SW,8.1,-,N/A,,Clear,220,2012-10-05 20:15:00
1:35 PM,91.4,33.8,13,29.91,10.0,SW,6.9,-,N/A,,Clear,220,2012-10-05 20:35:00
1:55 PM,91.4,33.8,13,29.90,10.0,SSW,6.9,-,N/A,,Clear,210,2012-10-05 20:55:00
2:15 PM,91.4,32.0,12,29.89,10.0,SW,6.9,-,N/A,,Clear,230,2012-10-05 21:15:00
2:35 PM,93.2,32.0,11,29.88,10.0,SSW,6.9,-,N/A,,Clear,200,2012-10-05 21:35:00
2:55 PM,93.2,32.0,11,29.88,10.0,SW,8.1,-,N/A,,Clear,220,2012-10-05 21:55:00
3:15 PM,93.2,32.0,11,29.87,10.0,South,9.2,-,N/A,,Clear,190,2012-10-05 22:15:00
3:35 PM,93.2,32.0,11,29.86,10.0,SW,6.9,-,N/A,,Clear,220,2012-10-05 22:35:00
3:55 PM,93.2,32.0,11,29.86,10.0,SSW,8.1,-,N/A,,Clear,200,2012-10-05 22:55:00
4:15 PM,93.2,32.0,11,29.85,10.0,SW,6.9,-,N/A,,Clear,220,2012-10-05 23:15:00
4:35 PM,93.2,32.0,11,29.85,10.0,South,5.8,-,N/A,,Clear,180,2012-10-05 23:35:00
4:55 PM,93.2,32.0,11,29.85,10.0,Calm,Calm,-,N/A,,Clear,0,2012-10-05 23:55:00
5:15 PM,93.2,30.2,11,29.84,10.0,SSW,4.6,-,N/A,,Clear,200,2012-10-06 00:15:00
5:35 PM,93.2,30.2,11,29.83,10.0,SSE,4.6,-,N/A,,Clear,160,2012-10-06 00:35:00
5:55 PM,93.2,30.2,11,29.83,10.0,South,6.9,-,N/A,,Clear,170,2012-10-06 00:55:00
6:15 PM,91.4,32.0,12,29.83,10.0,Calm,Calm,-,N/A,,Clear,0,2012-10-06 01:15:00
6:35 PM,89.6,33.8,14,29.84,10.0,Calm,Calm,-,N/A,,Clear,0,2012-10-06 01:35:00
6:55 PM,87.8,33.8,15,29.84,10.0,Calm,Calm,-,N/A,,Clear,0,2012-10-06 01:55:00
7:15 PM,86.0,33.8,15,29.84,10.0,SE,4.6,-,N/A,,Clear,140,2012-10-06 02:15:00
7:35 PM,86.0,33.8,15,29.85,10.0,SE,4.6,-,N/A,,Clear,140,2012-10-06 02:35:00
7:55 PM,84.2,32.0,15,29.85,10.0,ESE,3.5,-,N/A,,Clear,110,2012-10-06 02:55:00
8:15 PM,82.4,32.0,16,29.85,10.0,Calm,Calm,-,N/A,,Clear,0,2012-10-06 03:15:00
8:35 PM,84.2,30.2,14,29.85,10.0,Calm,Calm,-,N/A,,Clear,0,2012-10-06 03:35:00
8:55 PM,84.2,32.0,15,29.85,10.0,Calm,Calm,-,N/A,,Clear,0,2012-10-06 03:55:00
9:15 PM,82.4,33.8,17,29.85,10.0,Calm,Calm,-,N/A,,Clear,0,2012-10-06 04:15:00
9:35 PM,82.4,32.0,16,29.85,10.0,Calm,Calm,-,N/A,,Clear,0,2012-10-06 04:35:00
9:55 PM,82.4,32.0,16,29.85,10.0,Calm,Calm,-,N/A,,Clear,0,2012-10-06 04:55:00
10:15 PM,80.6,33.8,18,29.86,10.0,North,3.5,-,N/A,,Clear,350,2012-10-06 05:15:00
10:35 PM,80.6,33.8,18,29.86,10.0,East,3.5,-,N/A,,Clear,80,2012-10-06 05:35:00
10:55 PM,77.0,32.0,19,29.86,10.0,SE,3.5,-,N/A,,Clear,130,2012-10-06 05:55:00
11:15 PM,77.0,32.0,19,29.87,10.0,East,4.6,-,N/A,,Clear,100,2012-10-06 06:15:00
11:35 PM,77.0,32.0,19,29.86,10.0,ESE,6.9,-,N/A,,Clear,110,2012-10-06 06:35:00
11:55 PM,77.0,32.0,19,29.86,10.0,East,4.6,-,N/A,,Clear,100,2012-10-06 06:55:00